createdAt,value
2023-01-30T00:01:51.323Z,3.80
2023-01-30T00:04:19.321Z,3.50
2023-01-30T00:06:47.616Z,4.20
2023-01-30T00:09:15.980Z,3.70
2023-01-30T00:11:44.418Z,4.10
2023-01-30T00:14:12.567Z,3.50
2023-01-30T00:16:42.868Z,3.50
2023-01-30T00:19:12.712Z,3.50
2023-01-30T00:21:40.695Z,3.80
2023-01-30T00:24:13.682Z,3.70
2023-01-30T00:26:42.802Z,3.40
2023-01-30T00:29:10.801Z,3.20
2023-01-30T00:31:39.016Z,3.40
2023-01-30T00:34:07.985Z,3.70
2023-01-30T00:36:35.850Z,3.30
2023-01-30T00:39:04.011Z,3.80
2023-01-30T00:41:51.845Z,3.30
2023-01-30T00:44:38.700Z,3.70
2023-01-30T00:47:07.109Z,3.40
2023-01-30T00:49:36.271Z,4.30
2023-01-30T00:52:04.737Z,3.60
2023-01-30T00:54:32.926Z,4.30
2023-01-30T00:57:00.985Z,3.40
2023-01-30T00:59:28.931Z,3.70
2023-01-30T01:01:56.804Z,3.60
2023-01-30T01:04:24.930Z,3.40
2023-01-30T01:06:55.173Z,3.40
2023-01-30T01:09:23.302Z,3.60
2023-01-30T01:11:51.625Z,3.90
2023-01-30T01:14:19.860Z,3.40
2023-01-30T01:16:48.393Z,2.90
2023-01-30T01:19:16.631Z,3.50
2023-01-30T01:21:44.702Z,3.50
2023-01-30T01:24:13.682Z,3.40
2023-01-30T01:26:43.119Z,3.20
2023-01-30T01:29:16.205Z,3.70
2023-01-30T01:31:44.409Z,3.50
2023-01-30T01:34:12.853Z,3.70
2023-01-30T01:36:56.402Z,3.30
2023-01-30T01:39:24.619Z,4.00
2023-01-30T01:41:53.168Z,3.20
2023-01-30T01:44:21.162Z,3.50
2023-01-30T01:46:53.112Z,3.10
2023-01-30T01:49:28.955Z,3.50
2023-01-30T01:52:17.277Z,3.30
2023-01-30T01:54:46.542Z,3.00
2023-01-30T01:57:42.833Z,3.30
2023-01-30T02:00:16.452Z,3.30
2023-01-30T02:02:50.342Z,3.10
2023-01-30T02:05:19.645Z,2.90
2023-01-30T02:07:51.632Z,3.30
2023-01-30T02:10:24.420Z,3.00
2023-01-30T02:12:52.837Z,4.50
2023-01-30T02:15:22.207Z,3.00
2023-01-30T02:17:50.212Z,3.40
2023-01-30T02:20:27.627Z,3.10
2023-01-30T02:23:17.450Z,3.10
2023-01-30T02:26:00.621Z,3.10
2023-01-30T02:28:36.794Z,3.40
2023-01-30T02:31:10.595Z,3.30
2023-01-30T02:33:47.984Z,2.90
2023-01-30T02:36:18.256Z,3.10
2023-01-30T02:38:52.831Z,2.70
2023-01-30T02:41:39.394Z,3.20
2023-01-30T02:44:30.462Z,2.50
2023-01-30T02:47:08.238Z,3.30
2023-01-30T02:49:45.385Z,3.30
2023-01-30T02:52:13.367Z,3.00
2023-01-30T02:54:41.260Z,2.90
2023-01-30T02:57:21.605Z,2.80
2023-01-30T02:59:55.954Z,2.80
2023-01-30T03:02:30.614Z,2.90
2023-01-30T03:05:14.045Z,3.00
2023-01-30T03:08:27.590Z,2.70
2023-01-30T03:11:03.744Z,2.70
2023-01-30T03:13:58.125Z,3.70
2023-01-30T03:16:33.433Z,3.00
2023-01-30T03:19:02.150Z,3.00
2023-01-30T03:21:30.435Z,3.20
2023-01-30T03:23:59.211Z,2.90
2023-01-30T03:26:30.868Z,2.80
2023-01-30T03:28:58.851Z,2.60
2023-01-30T03:31:26.988Z,2.90
2023-01-30T03:33:56.077Z,2.70
2023-01-30T03:36:24.542Z,2.60
2023-01-30T03:38:52.446Z,3.10
2023-01-30T03:41:21.647Z,2.50
2023-01-30T03:43:49.826Z,2.50
2023-01-30T03:46:17.818Z,2.70
2023-01-30T03:48:45.924Z,2.60
2023-01-30T03:51:14.053Z,3.00
2023-01-30T03:53:41.978Z,2.80
2023-01-30T03:56:10.420Z,2.40
2023-01-30T03:58:38.776Z,3.00
2023-01-30T04:01:25.046Z,2.70
2023-01-30T04:03:54.009Z,5.90
2023-01-30T04:06:22.202Z,2.50
2023-01-30T04:08:53.861Z,2.80
2023-01-30T04:11:32.205Z,2.40
2023-01-30T04:14:00.367Z,2.40
2023-01-30T04:16:29.019Z,2.40
2023-01-30T04:19:33.577Z,2.40
2023-01-30T04:22:01.574Z,2.60
2023-01-30T04:24:33.616Z,2.60
2023-01-30T04:27:01.572Z,2.50
2023-01-30T04:29:30.263Z,2.90
2023-01-30T04:31:59.687Z,3.00
2023-01-30T04:34:32.588Z,3.10
2023-01-30T04:37:00.756Z,2.60
2023-01-30T04:39:29.560Z,3.00
2023-01-30T04:41:57.891Z,2.80
2023-01-30T04:44:25.966Z,2.70
2023-01-30T04:47:12.112Z,2.90
2023-01-30T04:49:40.304Z,2.70
2023-01-30T04:52:08.881Z,3.10
2023-01-30T04:54:38.347Z,3.30
2023-01-30T04:57:06.411Z,2.80
2023-01-30T04:59:35.360Z,3.20
2023-01-30T05:02:05.125Z,3.10
2023-01-30T05:04:33.889Z,2.90
2023-01-30T05:07:01.990Z,2.80
2023-01-30T05:09:30.243Z,3.00
2023-01-30T05:11:58.235Z,2.60
2023-01-30T05:14:26.230Z,2.90
2023-01-30T05:16:54.236Z,3.00
2023-01-30T05:19:22.311Z,2.90
2023-01-30T05:21:50.299Z,3.50
2023-01-30T05:24:18.228Z,3.40
2023-01-30T05:26:46.271Z,2.60
2023-01-30T05:29:14.246Z,2.90
2023-01-30T05:31:42.200Z,3.30
2023-01-30T05:34:11.707Z,2.70
2023-01-30T05:36:39.753Z,3.30
2023-01-30T05:39:07.908Z,3.00
2023-01-30T05:41:35.931Z,3.40
2023-01-30T05:44:04.133Z,3.20
2023-01-30T05:46:32.944Z,3.30
2023-01-30T05:49:01.008Z,3.20
2023-01-30T05:51:28.937Z,3.30
2023-01-30T05:53:57.842Z,3.10
2023-01-30T05:56:25.732Z,3.20
2023-01-30T05:58:55.295Z,4.50
2023-01-30T06:01:26.354Z,3.50
2023-01-30T06:03:54.375Z,4.20
2023-01-30T06:06:22.875Z,3.50
2023-01-30T06:08:55.632Z,4.10
2023-01-30T06:11:23.688Z,3.30
2023-01-30T06:13:51.978Z,3.50
2023-01-30T06:16:20.169Z,3.50
2023-01-30T06:18:48.608Z,3.40
2023-01-30T06:21:16.650Z,3.40
2023-01-30T06:23:44.712Z,3.90
2023-01-30T06:26:12.914Z,3.30
2023-01-30T06:28:41.227Z,3.80
2023-01-30T06:31:11.573Z,4.20
2023-01-30T06:33:39.544Z,3.70
2023-01-30T06:36:08.211Z,4.00
2023-01-30T06:38:36.637Z,5.80
2023-01-30T06:41:04.680Z,3.90
2023-01-30T06:43:32.720Z,3.80
2023-01-30T06:46:00.743Z,3.60
2023-01-30T06:48:29.104Z,3.70
2023-01-30T06:50:57.139Z,4.20
2023-01-30T06:53:30.531Z,3.50
2023-01-30T06:55:59.626Z,3.60
2023-01-30T06:58:27.482Z,3.90
2023-01-30T07:00:57.376Z,4.00
2023-01-30T07:03:25.298Z,4.90
2023-01-30T07:05:53.783Z,3.70
2023-01-30T07:08:23.329Z,4.00
2023-01-30T07:10:52.539Z,5.80
2023-01-30T07:13:20.942Z,4.30
2023-01-30T07:15:48.912Z,5.80
2023-01-30T07:18:18.110Z,4.80
2023-01-30T07:20:50.387Z,3.90
2023-01-30T07:23:18.300Z,6.60
2023-01-30T07:25:46.648Z,4.10
2023-01-30T07:28:15.019Z,7.00
2023-01-30T07:30:43.103Z,3.80
2023-01-30T07:33:11.159Z,5.00
2023-01-30T07:35:39.175Z,8.10
2023-01-30T07:38:07.236Z,4.50
2023-01-30T07:40:36.817Z,6.80
2023-01-30T07:43:06.682Z,4.90
2023-01-30T07:45:53.737Z,4.80
2023-01-30T07:48:21.685Z,6.00
2023-01-30T07:50:49.655Z,6.50
2023-01-30T07:53:18.736Z,4.90
2023-01-30T07:55:46.585Z,4.60
2023-01-30T07:58:17.985Z,5.20
2023-01-30T08:00:47.362Z,7.20
2023-01-30T08:03:16.159Z,5.40
2023-01-30T08:05:46.776Z,5.90
2023-01-30T08:08:15.070Z,11.60
2023-01-30T08:10:44.799Z,8.20
2023-01-30T08:13:13.158Z,6.30
2023-01-30T08:15:41.227Z,5.60
2023-01-30T08:18:09.171Z,6.70
2023-01-30T08:20:37.497Z,6.20
2023-01-30T08:23:05.751Z,5.60
2023-01-30T08:25:38.122Z,6.80
2023-01-30T08:28:06.325Z,6.10
2023-01-30T08:30:34.813Z,5.90
2023-01-30T08:33:02.911Z,5.40
2023-01-30T08:35:30.906Z,8.00
2023-01-30T08:37:59.457Z,9.20
2023-01-30T08:40:27.554Z,5.70
2023-01-30T08:42:55.643Z,6.50
2023-01-30T08:45:24.004Z,6.10
2023-01-30T08:47:51.951Z,11.50
2023-01-30T08:50:20.248Z,8.30
2023-01-30T08:52:48.551Z,6.90
2023-01-30T08:55:16.717Z,6.30
2023-01-30T08:57:45.869Z,9.50
2023-01-30T09:00:14.644Z,9.20
2023-01-30T09:02:42.672Z,6.60
2023-01-30T09:05:13.053Z,7.00
2023-01-30T09:07:41.188Z,8.30
2023-01-30T09:10:09.962Z,10.60
2023-01-30T09:12:37.932Z,7.20
2023-01-30T09:15:07.125Z,9.30
2023-01-30T09:17:35.398Z,6.20
2023-01-30T09:20:07.329Z,7.90
2023-01-30T09:22:35.442Z,7.40
2023-01-30T09:25:05.004Z,8.20
2023-01-30T09:27:33.196Z,10.70
2023-01-30T09:32:08.620Z,9.10
2023-01-30T09:34:36.820Z,8.30
2023-01-30T09:37:05.277Z,9.20
2023-01-30T09:39:33.419Z,7.80
2023-01-30T09:42:32.187Z,7.50
2023-01-30T09:45:31.596Z,11.10
2023-01-30T09:48:26.903Z,9.90
2023-01-30T09:51:02.333Z,7.60
2023-01-30T09:53:44.446Z,9.50
2023-01-30T09:56:12.623Z,9.50
2023-01-30T09:58:48.633Z,11.20
2023-01-30T10:01:41.025Z,9.00
2023-01-30T10:04:16.194Z,9.20
2023-01-30T10:06:54.262Z,6.60
2023-01-30T10:09:31.314Z,8.50
2023-01-30T10:12:10.477Z,8.90
2023-01-30T10:15:00.611Z,8.30
2023-01-30T10:17:50.127Z,7.80
2023-01-30T10:20:31.595Z,8.80
2023-01-30T10:23:03.019Z,10.30
2023-01-30T10:25:51.263Z,8.40
2023-01-30T10:28:21.960Z,6.90
2023-01-30T10:30:51.752Z,7.50
2023-01-30T10:33:50.323Z,7.20
2023-01-30T10:36:25.544Z,7.30
2023-01-30T10:38:53.506Z,6.90
2023-01-30T10:41:31.394Z,8.20
2023-01-30T10:44:04.398Z,12.30
2023-01-30T10:47:09.700Z,8.60
2023-01-30T10:49:42.360Z,8.30
2023-01-30T10:52:51.011Z,7.80
2023-01-30T10:55:36.398Z,10.60
2023-01-30T10:58:29.791Z,8.60
2023-01-30T11:01:37.842Z,9.20
2023-01-30T11:06:42.689Z,9.80
2023-01-30T11:09:10.751Z,8.10
2023-01-30T11:12:07.854Z,16.80
2023-01-30T11:14:52.476Z,12.90
2023-01-30T11:17:21.875Z,9.90
2023-01-30T11:19:56.731Z,12.10
2023-01-30T11:22:27.525Z,11.60
2023-01-30T16:43:45.583Z,12.60
2023-01-30T16:46:47.635Z,9.00
2023-01-30T16:49:24.285Z,9.70
2023-01-30T16:52:00.074Z,8.70
2023-01-30T16:54:28.952Z,9.20
2023-01-30T16:56:57.847Z,7.70
2023-01-30T16:59:29.692Z,10.60
2023-01-30T17:01:59.309Z,7.90
2023-01-30T17:04:32.135Z,7.70
2023-01-30T17:07:01.850Z,8.50
2023-01-30T17:09:46.956Z,8.50
2023-01-30T17:12:27.394Z,8.10
2023-01-30T17:15:13.606Z,8.00
2023-01-30T17:17:44.081Z,7.50
2023-01-30T17:20:13.339Z,6.80
2023-01-30T17:22:41.473Z,6.10
2023-01-30T17:25:24.940Z,9.00
2023-01-30T17:27:53.184Z,8.80
2023-01-30T17:30:21.444Z,9.30
2023-01-30T17:32:52.497Z,8.70
2023-01-30T17:35:20.906Z,7.40
2023-01-30T17:37:59.610Z,9.70
2023-01-30T17:40:36.488Z,7.20
2023-01-30T17:43:04.956Z,9.30
2023-01-30T17:45:33.439Z,7.10
2023-01-30T17:48:01.922Z,6.10
2023-01-30T17:50:32.656Z,8.30
2023-01-30T17:53:00.726Z,6.10
2023-01-30T17:55:28.833Z,8.30
2023-01-30T17:57:56.818Z,7.90
2023-01-30T18:00:25.242Z,8.90
2023-01-30T18:02:54.258Z,6.60
2023-01-30T18:05:24.993Z,8.50
2023-01-30T18:07:53.468Z,8.60
2023-01-30T18:10:21.767Z,5.70
2023-01-30T18:12:50.215Z,6.60
2023-01-30T18:15:21.155Z,8.10
2023-01-30T18:17:49.423Z,5.50
2023-01-30T18:20:19.009Z,8.40
2023-01-30T18:22:47.239Z,6.70
2023-01-30T18:25:15.793Z,9.20
2023-01-30T18:27:44.447Z,9.00
2023-01-30T18:30:15.831Z,6.40
2023-01-30T18:32:53.595Z,6.70
2023-01-30T18:35:22.555Z,6.40
2023-01-30T18:37:50.622Z,6.40
2023-01-30T18:40:19.979Z,6.80
2023-01-30T18:42:48.360Z,5.60
2023-01-30T18:45:16.379Z,7.30
2023-01-30T18:47:45.014Z,6.60
2023-01-30T18:50:13.499Z,6.80
2023-01-30T18:52:41.705Z,6.50
2023-01-30T18:55:12.138Z,6.50
2023-01-30T18:57:40.171Z,6.30
2023-01-30T19:00:08.751Z,7.50
2023-01-30T19:02:41.354Z,6.40
2023-01-30T19:05:09.484Z,9.00
2023-01-30T19:07:37.482Z,7.80
2023-01-30T19:10:05.922Z,6.80
2023-01-30T19:12:53.155Z,7.20
2023-01-30T19:17:48.994Z,5.90
2023-01-30T19:20:17.969Z,8.10
2023-01-30T19:22:46.766Z,6.70
2023-01-30T19:25:14.961Z,6.90
2023-01-30T19:28:03.117Z,7.60
2023-01-30T19:30:34.264Z,6.50
2023-01-30T19:33:03.307Z,5.50
2023-01-30T19:35:34.393Z,6.90
2023-01-30T19:38:03.692Z,6.60
2023-01-30T19:40:32.476Z,6.70
2023-01-30T19:43:10.450Z,8.20
2023-01-30T19:45:39.862Z,4.90
2023-01-30T19:48:08.973Z,7.90
2023-01-30T19:50:37.772Z,9.00
2023-01-30T19:53:05.841Z,6.20
2023-01-30T19:55:35.245Z,7.00
2023-01-30T19:58:03.511Z,5.80
2023-01-30T20:00:31.696Z,6.20
2023-01-30T20:02:59.759Z,8.30
2023-01-30T20:05:32.038Z,6.90
2023-01-30T20:08:00.319Z,4.80
2023-01-30T20:10:32.996Z,7.80
2023-01-30T20:13:02.392Z,6.80
2023-01-30T20:15:30.513Z,5.40
2023-01-30T20:17:58.401Z,7.00
2023-01-30T20:20:26.602Z,6.40
2023-01-30T20:22:54.595Z,5.20
2023-01-30T20:25:22.644Z,6.40
2023-01-30T20:27:50.940Z,6.30
2023-01-30T20:30:19.967Z,5.50
2023-01-30T20:32:48.392Z,6.80
2023-01-30T20:35:18.200Z,5.70
2023-01-30T20:37:46.242Z,7.10
2023-01-30T20:40:14.916Z,7.10
2023-01-30T20:42:43.227Z,7.00
2023-01-30T20:45:11.301Z,6.50
2023-01-30T20:47:40.573Z,7.10
2023-01-30T20:50:11.336Z,6.50
2023-01-30T20:52:42.302Z,6.50
2023-01-30T20:55:10.367Z,6.50
2023-01-30T20:57:38.524Z,5.10
2023-01-30T21:00:07.608Z,6.10
2023-01-30T21:02:35.536Z,5.80
2023-01-30T21:05:04.035Z,6.10
2023-01-30T21:07:33.274Z,5.40
2023-01-30T21:10:01.216Z,7.40
2023-01-30T21:12:29.661Z,6.40
2023-01-30T21:14:57.855Z,8.00
2023-01-30T21:17:25.950Z,6.20
2023-01-30T21:19:54.034Z,7.80
2023-01-30T21:22:22.287Z,7.60
2023-01-30T21:24:50.177Z,6.20
2023-01-30T21:27:19.539Z,5.90
2023-01-30T21:29:47.688Z,5.90
2023-01-30T21:32:15.734Z,5.50
2023-01-30T21:34:43.642Z,8.10
2023-01-30T21:37:30.753Z,6.40
2023-01-30T21:40:17.559Z,6.10
2023-01-30T21:43:04.143Z,5.60
2023-01-30T21:45:32.601Z,6.10
2023-01-30T21:48:00.535Z,8.60
2023-01-30T21:50:28.646Z,6.10
2023-01-30T21:52:56.604Z,6.20
2023-01-30T21:55:27.063Z,6.90
2023-01-30T21:57:55.526Z,5.30
2023-01-30T22:00:23.690Z,6.20
2023-01-30T22:02:51.728Z,7.30
2023-01-30T22:05:20.212Z,6.20
2023-01-30T22:07:48.519Z,7.60
2023-01-30T22:10:16.702Z,6.30
2023-01-30T22:12:46.500Z,6.90
2023-01-30T22:15:14.390Z,6.10
2023-01-30T22:17:43.533Z,6.80
2023-01-30T22:20:12.733Z,6.60
2023-01-30T22:22:40.847Z,5.80
2023-01-30T22:25:11.644Z,6.20
2023-01-30T22:27:39.644Z,6.90
2023-01-30T22:30:08.727Z,6.70
2023-01-30T22:32:40.604Z,6.80
2023-01-30T22:35:08.567Z,6.80
2023-01-30T22:37:36.544Z,7.00
2023-01-30T22:40:05.911Z,6.30
2023-01-30T22:42:33.786Z,6.70
2023-01-30T22:45:03.023Z,9.60
2023-01-30T22:47:31.482Z,6.80
2023-01-30T22:50:00.998Z,6.70
2023-01-30T22:52:29.428Z,7.60
2023-01-30T22:54:57.518Z,6.60
2023-01-30T22:57:26.659Z,6.50
2023-01-30T22:59:54.562Z,6.70
2023-01-30T23:02:22.600Z,6.80
2023-01-30T23:04:50.749Z,7.50
2023-01-30T23:07:20.868Z,7.80
2023-01-30T23:09:49.744Z,7.00
2023-01-30T23:12:36.780Z,7.00
2023-01-30T23:15:05.558Z,6.80
2023-01-30T23:18:12.023Z,6.70
2023-01-30T23:20:40.282Z,6.30
2023-01-30T23:23:08.348Z,7.60
2023-01-30T23:25:40.650Z,6.80
2023-01-30T23:28:09.125Z,6.60
2023-01-30T23:30:38.108Z,8.50
2023-01-30T23:33:06.062Z,8.00
2023-01-30T23:35:35.382Z,7.70
2023-01-30T23:38:15.636Z,6.90
2023-01-30T23:40:44.260Z,7.70
2023-01-30T23:43:13.438Z,6.70
2023-01-30T23:45:41.827Z,6.40
2023-01-30T23:48:10.003Z,7.20
2023-01-30T23:50:39.831Z,7.50
2023-01-30T23:53:08.934Z,6.70
2023-01-30T23:55:37.597Z,7.80
2023-01-30T23:58:05.698Z,7.00
